Time;durP1;ratioP1;P1;durP2;ratioP2;P2;SDS_P1;SDS_P2;PMS_P1;PMS_P2;Temp;Humidity;BMP_temperature;BMP_pressure;BME280_temperature;BME280_humidity;BME280_pressure;Samples;Min_cycle;Max_cycle;Signal;HPM_P1;HPM_P2
2023/08/06 00:03:10;;;;;;;53.67;27.90;;;19.00;99.90;;;;;;5843424;23;20209;-83
2023/08/06 00:43:49;;;;;;;41.07;23.53;;;19.00;99.90;;;;;;6086934;23;20201;-85
2023/08/06 01:08:45;;;;;;;27.70;19.93;;;19.00;99.90;;;;;;5796086;24;20428;-79
2023/08/06 01:29:20;;;;;;;24.70;18.63;;;18.80;99.90;;;;;;5837382;24;20218;-85
2023/08/06 01:54:28;;;;;;;24.97;19.60;;;18.70;99.90;;;;;;5791945;24;20203;-82
2023/08/06 03:00:07;;;;;;;28.63;19.47;;;18.90;99.90;;;;;;5737616;24;20325;-81
2023/08/06 03:20:56;;;;;;;29.90;21.73;;;19.00;99.90;;;;;;5828251;24;20191;-83
2023/08/06 03:46:21;;;;;;;33.70;23.67;;;19.20;99.90;;;;;;5894035;23;20174;-83
2023/08/06 04:16:30;;;;;;;29.50;24.20;;;19.30;99.90;;;;;;5770562;24;20485;-81
2023/08/06 04:36:59;;;;;;;29.27;22.97;;;19.60;99.90;;;;;;5770837;24;20180;-82
2023/08/06 05:17:39;;;;;;;20.77;17.63;;;20.70;99.90;;;;;;5977332;23;20218;-79
2023/08/06 05:42:25;;;;;;;15.65;13.88;;;21.40;99.90;;;;;;5784971;24;20575;-83
2023/08/06 06:02:43;;;;;;;13.52;12.23;;;22.00;99.90;;;;;;5666717;24;20257;-79
2023/08/06 06:33:53;;;;;;;13.00;11.30;;;23.20;99.90;;;;;;5760828;24;20181;-84
2023/08/06 06:38:10;;;;;;;12.32;11.13;;;23.30;99.90;;;;;;5661576;24;20293;-82
2023/08/06 06:58:58;;;;;;;13.23;11.38;;;23.90;99.90;;;;;;5788646;24;20173;-83
2023/08/06 07:29:27;;;;;;;11.32;10.23;;;24.60;99.90;;;;;;5804205;24;20212;-84
2023/08/06 07:54:46;;;;;;;11.10;9.88;;;25.80;99.90;;;;;;5754657;24;20208;-84
2023/08/06 08:24:49;;;;;;;10.30;9.40;;;26.80;93.70;;;;;;5821667;24;20816;-85
2023/08/06 08:45:29;;;;;;;10.13;9.18;;;27.70;92.10;;;;;;5827574;24;20228;-85
2023/08/06 09:10:56;;;;;;;9.45;8.55;;;28.00;87.50;;;;;;5740265;24;20658;-85
2023/08/06 09:36:24;;;;;;;8.82;8.02;;;28.40;87.70;;;;;;5805314;24;20820;-82
2023/08/06 10:16:43;;;;;;;9.60;8.00;;;28.40;83.70;;;;;;4899970;28;20199;-85
2023/08/06 10:46:40;;;;;;;8.38;7.10;;;28.90;80.40;;;;;;4679546;30;20355;-89
2023/08/06 11:12:30;;;;;;;9.13;6.63;;;29.80;70.50;;;;;;4700670;29;20284;-85
2023/08/06 11:48:16;;;;;;;7.82;7.05;;;29.90;66.30;;;;;;4983206;28;20250;-84
2023/08/06 11:52:36;;;;;;;9.73;6.85;;;29.80;68.30;;;;;;4934874;28;20502;-85
2023/08/06 12:13:22;;;;;;;7.70;6.93;;;29.80;63.50;;;;;;4802689;29;20224;-83
2023/08/06 12:54:08;;;;;;;8.68;7.78;;;28.30;74.40;;;;;;4740305;29;20202;-84
2023/08/06 13:19:21;;;;;;;8.73;7.82;;;27.00;99.90;;;;;;4854647;28;20233;-85
2023/08/06 13:54:59;;;;;;;6.60;5.97;;;29.10;83.20;;;;;;4913836;28;20194;-83
2023/08/06 14:20:25;;;;;;;5.85;5.35;;;30.40;69.40;;;;;;4846295;29;20282;-88
2023/08/06 14:24:46;;;;;;;5.75;5.22;;;30.50;68.40;;;;;;4780961;29;20451;-84
2023/08/06 14:50:33;;;;;;;4.50;4.10;;;31.60;63.00;;;;;;4773665;29;20208;-85
2023/08/06 15:10:33;;;;;;;4.55;3.85;;;29.70;64.50;;;;;;4776382;29;20708;-85
2023/08/06 15:36:25;;;;;;;2.80;2.60;;;29.20;77.30;;;;;;4867922;28;20230;-83
2023/08/06 16:01:35;;;;;;;1.88;1.67;;;27.20;85.10;;;;;;4753862;29;20705;-86
2023/08/06 16:26:55;;;;;;;2.03;1.48;;;26.00;87.20;;;;;;4728295;29;20301;-85
2023/08/06 17:17:39;;;;;;;1.52;1.42;;;24.90;92.20;;;;;;4762544;29;20197;-86
2023/08/06 17:48:06;;;;;;;3.83;2.70;;;22.90;99.90;;;;;;4876203;28;20217;-86
2023/08/06 18:48:05;;;;;;;2.77;2.67;;;20.00;99.90;;;;;;4802304;29;20245;-86
2023/08/06 19:34:05;;;;;;;2.50;2.30;;;18.60;99.90;;;;;;4899633;28;20635;-85
2023/08/06 20:03:58;;;;;;;1.90;1.80;;;18.40;99.90;;;;;;4604030;30;20278;-85
2023/08/06 20:29:59;;;;;;;1.10;0.97;;;18.20;99.90;;;;;;4759173;29;20215;-87
2023/08/06 21:00:22;;;;;;;2.63;0.80;;;18.10;99.90;;;;;;4741570;29;20219;-86
2023/08/06 21:35:50;;;;;;;1.20;1.10;;;17.80;99.90;;;;;;4868108;28;20691;-85
2023/08/06 21:56:17;;;;;;;2.77;0.80;;;17.70;99.90;;;;;;4857059;29;20197;-84
2023/08/06 22:16:04;;;;;;;0.60;0.60;;;17.30;99.90;;;;;;4746958;29;20416;-85
2023/08/06 22:46:55;;;;;;;1.20;0.57;;;16.80;99.90;;;;;;4802411;29;20472;-85
2023/08/06 23:12:22;;;;;;;3.37;1.07;;;16.50;99.90;;;;;;4779991;29;20279;-83
2023/08/06 23:16:42;;;;;;;0.50;0.50;;;16.40;99.90;;;;;;4717060;29;20216;-86
2023/08/06 23:37:15;;;;;;;1.37;0.73;;;16.20;99.90;;;;;;4679536;30;20636;-86
2023/08/06 23:57:56;;;;;;;0.80;0.80;;;15.60;99.90;;;;;;4620136;30;20217;-83
